Avon, New York
Current Conditions -  °F | °C
As of 10:54 AM on Thursday 29 Jan 2015 (Local Time) from KROC Reporting Station
Overcast Overcast  
Wind Chill: 24°   Ceiling: 6000
Heat Index: 32°   Visibility: 10mi
Dew Point:   Wind: 9mph
Humidity: 32%   Direction: 180°S
Pressure: 29.96"   Gusts: NA
Location:  42.91°N, 77.75°W
Report Text: KROC 291554Z 18008KT 10SM FEW048 BKN060 OVC075 00/M15 A2996 RMK AO2 SLP157 T00001150
Loading
Personal Weather Stations






























Interactive Weather Map New forecast layout! Learn more

10-Day Weather Forecast

Advertisements
Track Severe Weather on mobile